createdAt,value
2018-06-17T00:00:46.881Z,97983.88
2018-06-17T00:03:24.453Z,97985.78
2018-06-17T00:06:00.609Z,97986.98
2018-06-17T00:08:37.050Z,97995.55
2018-06-17T00:11:12.731Z,97994.48
2018-06-17T00:13:49.445Z,98006.21
2018-06-17T00:16:26.726Z,97997.97
2018-06-17T00:19:04.075Z,98008.48
2018-06-17T00:21:39.841Z,98009.19
2018-06-17T00:24:15.588Z,98005.23
2018-06-17T00:26:51.082Z,98012.39
2018-06-17T00:29:27.614Z,98015.27
2018-06-17T00:32:04.189Z,98012.73
2018-06-17T00:34:41.114Z,98010.45
2018-06-17T00:37:17.052Z,98007.48
2018-06-17T00:39:53.674Z,98001.75
2018-06-17T00:42:29.696Z,98000.55
2018-06-17T00:45:06.998Z,98001.18
2018-06-17T00:47:43.601Z,98002.29
2018-06-17T00:50:19.516Z,97998.44
2018-06-17T00:52:55.907Z,98007.23
2018-06-17T00:55:33.272Z,98006.48
2018-06-17T00:58:09.125Z,98003.52
2018-06-17T01:00:45.091Z,98007.47
2018-06-17T01:03:22.057Z,98007.80
2018-06-17T01:05:58.346Z,98006.34
2018-06-17T01:08:34.822Z,98008.45
2018-06-17T01:11:11.668Z,98012.24
2018-06-17T01:13:47.720Z,98011.66
2018-06-17T01:16:25.006Z,98012.50
2018-06-17T01:19:02.266Z,98009.02
2018-06-17T01:21:38.276Z,98008.22
2018-06-17T01:24:14.707Z,98008.69
2018-06-17T01:26:50.498Z,98007.84
2018-06-17T01:29:26.186Z,98009.86
2018-06-17T01:32:03.335Z,98009.02
2018-06-17T01:34:40.632Z,98011.22
2018-06-17T01:37:18.285Z,98009.65
2018-06-17T01:39:54.750Z,98011.06
2018-06-17T01:42:31.523Z,98010.55
2018-06-17T01:45:07.840Z,98011.50
2018-06-17T01:47:44.125Z,98006.53
2018-06-17T01:50:20.864Z,98009.08
2018-06-17T01:52:56.701Z,98006.48
2018-06-17T01:55:33.485Z,98012.39
2018-06-17T01:58:09.497Z,98014.31
2018-06-17T02:00:46.233Z,98008.35
2018-06-17T02:03:27.535Z,98001.27
2018-06-17T02:06:08.549Z,98005.95
2018-06-17T02:08:50.033Z,98003.28
2018-06-17T02:11:31.423Z,98014.37
2018-06-17T02:14:15.220Z,98003.61
2018-06-17T02:16:51.117Z,98001.64
2018-06-17T02:19:26.951Z,98000.84
2018-06-17T02:22:03.547Z,98003.94
2018-06-17T02:24:40.482Z,98010.55
2018-06-17T02:27:16.987Z,98009.52
2018-06-17T02:29:53.279Z,98012.90
2018-06-17T02:32:28.893Z,98007.83
2018-06-17T02:35:05.159Z,98003.40
2018-06-17T02:37:41.040Z,98006.28
2018-06-17T02:40:17.149Z,98005.37
2018-06-17T02:42:54.281Z,98009.53
2018-06-17T02:45:34.823Z,98012.31
2018-06-17T02:48:16.332Z,98013.38
2018-06-17T02:50:57.699Z,98014.66
2018-06-17T02:53:39.022Z,98013.84
2018-06-17T02:56:25.971Z,98012.79
2018-06-17T02:59:01.762Z,98018.53
2018-06-17T03:01:39.666Z,98019.22
2018-06-17T03:04:16.804Z,98021.25
2018-06-17T03:06:52.815Z,98022.02
2018-06-17T03:09:29.273Z,98031.49
2018-06-17T03:12:06.767Z,98034.87
2018-06-17T03:14:43.297Z,98035.55
2018-06-17T03:17:21.565Z,98033.39
2018-06-17T03:19:59.101Z,98037.14
2018-06-17T03:22:35.547Z,98037.32
2018-06-17T03:25:17.109Z,98033.38
2018-06-17T03:27:58.090Z,98030.67
2018-06-17T03:30:39.231Z,98030.75
2018-06-17T03:33:20.023Z,98032.53
2018-06-17T03:36:02.587Z,98038.08
2018-06-17T03:38:40.251Z,98041.64
2018-06-17T03:41:16.182Z,98046.34
2018-06-17T03:43:52.357Z,98041.47
2018-06-17T03:46:27.998Z,98043.51
2018-06-17T03:49:04.756Z,98045.11
2018-06-17T03:51:41.453Z,98039.49
2018-06-17T03:54:18.291Z,98038.06
2018-06-17T03:56:55.907Z,98038.26
2018-06-17T03:59:32.185Z,98030.45
2018-06-17T04:02:08.449Z,98024.00
2018-06-17T04:04:49.974Z,98025.09
2018-06-17T04:07:27.042Z,98037.20
2018-06-17T04:10:03.057Z,98037.83
2018-06-17T04:12:42.801Z,98033.25
2018-06-17T04:15:18.853Z,98036.42
2018-06-17T04:17:54.861Z,98034.27
2018-06-17T04:20:31.344Z,98032.55
2018-06-17T04:23:07.258Z,98039.28
2018-06-17T04:25:43.840Z,98043.41
2018-06-17T04:28:20.468Z,98040.10
2018-06-17T04:30:57.264Z,98050.68
2018-06-17T04:33:34.546Z,98050.33
2018-06-17T04:36:10.902Z,98060.44
2018-06-17T04:38:47.396Z,98070.45
2018-06-17T04:41:23.988Z,98062.97
2018-06-17T04:44:00.032Z,98068.08
2018-06-17T04:46:36.577Z,98065.14
2018-06-17T04:49:12.208Z,98066.03
2018-06-17T04:51:47.757Z,98064.02
2018-06-17T04:54:24.739Z,98065.86
2018-06-17T04:57:01.336Z,98071.83
2018-06-17T04:59:37.584Z,98088.23
2018-06-17T05:02:13.225Z,98089.89
2018-06-17T05:04:58.967Z,98091.22
2018-06-17T05:07:37.414Z,98097.91
2018-06-17T05:10:14.941Z,98095.60
2018-06-17T05:12:50.578Z,98100.83
2018-06-17T05:15:27.730Z,98091.73
2018-06-17T05:18:05.699Z,98090.30
2018-06-17T05:20:41.366Z,98094.54
2018-06-17T05:23:18.762Z,98094.59
2018-06-17T05:25:54.445Z,98101.86
2018-06-17T05:28:30.983Z,98090.25
2018-06-17T05:31:06.805Z,98093.80
2018-06-17T05:33:43.286Z,98092.22
2018-06-17T05:36:20.036Z,98089.05
2018-06-17T05:38:56.400Z,98084.82
2018-06-17T05:41:32.799Z,98090.31
2018-06-17T05:44:08.419Z,98093.50
2018-06-17T05:46:45.412Z,98096.64
2018-06-17T05:49:21.938Z,98094.97
2018-06-17T05:51:58.454Z,98086.24
2018-06-17T05:54:34.696Z,98093.05
2018-06-17T05:57:12.156Z,98104.58
2018-06-17T05:59:49.834Z,98109.88
2018-06-17T06:02:26.014Z,98110.00
2018-06-17T06:05:02.339Z,98118.64
2018-06-17T06:07:38.152Z,98111.89
2018-06-17T06:12:58.240Z,98112.45
2018-06-17T06:15:36.487Z,98123.77
2018-06-17T06:18:12.740Z,98117.53
2018-06-17T06:20:49.711Z,98121.16
2018-06-17T06:23:25.342Z,98117.52
2018-06-17T06:26:04.846Z,98115.95
2018-06-17T06:28:40.843Z,98127.89
2018-06-17T06:31:17.906Z,98136.06
2018-06-17T06:33:54.625Z,98132.75
2018-06-17T06:36:30.288Z,98131.03
2018-06-17T06:39:08.738Z,98130.19
2018-06-17T06:41:45.003Z,98137.20
2018-06-17T06:44:21.210Z,98139.59
2018-06-17T06:46:56.985Z,98147.42
2018-06-17T06:49:32.731Z,98143.52
2018-06-17T06:52:09.430Z,98148.25
2018-06-17T06:54:45.417Z,98150.81
2018-06-17T06:57:24.647Z,98150.00
2018-06-17T07:00:00.362Z,98153.56
2018-06-17T07:02:47.269Z,98152.77
2018-06-17T07:05:34.597Z,98151.56
2018-06-17T07:08:21.120Z,98155.41
2018-06-17T07:10:58.254Z,98137.80
2018-06-17T07:13:34.690Z,98144.75
2018-06-17T07:16:21.933Z,98146.66
2018-06-17T07:18:58.287Z,98143.77
2018-06-17T07:21:36.634Z,98146.17
2018-06-17T07:24:12.438Z,98150.84
2018-06-17T07:26:59.452Z,98154.95
2018-06-17T07:29:45.028Z,98159.34
2018-06-17T07:32:21.439Z,98168.20
2018-06-17T07:34:56.942Z,98165.88
2018-06-17T07:37:34.314Z,98159.59
2018-06-17T07:41:15.197Z,98177.20
2018-06-17T07:43:51.467Z,98184.61
2018-06-17T07:46:29.652Z,98185.90
2018-06-17T07:49:47.848Z,98189.25
2018-06-17T07:52:35.425Z,98191.96
2018-06-17T07:55:11.570Z,98193.77
2018-06-17T07:57:48.361Z,98199.41
2018-06-17T08:00:24.128Z,98202.95
2018-06-17T08:02:59.700Z,98197.46
2018-06-17T08:05:36.295Z,98195.55
2018-06-17T08:08:13.121Z,98196.80
2018-06-17T08:10:49.742Z,98201.84
2018-06-17T08:13:25.889Z,98204.30
2018-06-17T08:16:02.866Z,98194.67
2018-06-17T08:18:39.428Z,98200.28
2018-06-17T08:21:18.802Z,98204.98
2018-06-17T08:23:55.407Z,98200.13
2018-06-17T08:26:32.491Z,98208.73
2018-06-17T08:29:08.783Z,98212.92
2018-06-17T08:31:45.929Z,98209.89
2018-06-17T08:34:23.535Z,98209.06
2018-06-17T08:36:59.758Z,98210.48
2018-06-17T08:39:35.984Z,98213.66
2018-06-17T08:42:13.283Z,98216.54
2018-06-17T08:44:49.948Z,98216.36
2018-06-17T08:47:25.738Z,98216.28
2018-06-17T08:50:01.916Z,98205.05
2018-06-17T08:52:38.264Z,98212.44
2018-06-17T08:55:14.127Z,98211.18
2018-06-17T08:57:49.833Z,98212.66
2018-06-17T09:00:25.912Z,98216.74
2018-06-17T09:03:01.619Z,98225.67
2018-06-17T09:05:37.453Z,98204.30
2018-06-17T09:08:13.703Z,98214.16
2018-06-17T09:10:49.217Z,98212.48
2018-06-17T09:13:26.126Z,98224.73
2018-06-17T09:16:02.470Z,98217.94
2018-06-17T09:18:40.292Z,98219.22
2018-06-17T09:21:26.845Z,98206.98
2018-06-17T09:24:03.354Z,98228.52
2018-06-17T09:26:40.350Z,98226.45
2018-06-17T09:29:17.695Z,98222.42
2018-06-17T09:31:54.032Z,98213.50
2018-06-17T09:34:30.354Z,98207.89
2018-06-17T09:37:06.278Z,98209.83
2018-06-17T09:39:42.173Z,98209.06
2018-06-17T09:42:18.674Z,98209.81
2018-06-17T09:44:59.466Z,98216.66
2018-06-17T09:47:48.362Z,98218.55
2018-06-17T09:50:25.163Z,98217.16
2018-06-17T09:53:01.704Z,98219.48
2018-06-17T09:55:37.771Z,98215.07
2018-06-17T09:58:14.726Z,98224.03
2018-06-17T10:00:50.457Z,98222.70
2018-06-17T10:03:26.023Z,98222.30
2018-06-17T10:06:02.629Z,98219.41
2018-06-17T10:08:39.236Z,98224.03
2018-06-17T10:11:17.672Z,98229.84
2018-06-17T10:13:57.494Z,98236.04
2018-06-17T10:16:33.581Z,98230.09
2018-06-17T10:19:09.937Z,98231.55
2018-06-17T10:21:47.988Z,98235.45
2018-06-17T10:24:25.802Z,98234.61
2018-06-17T10:27:02.087Z,98233.94
2018-06-17T10:29:38.778Z,98234.17
2018-06-17T10:32:15.377Z,98234.92
2018-06-17T10:34:51.843Z,98246.19
2018-06-17T10:37:27.768Z,98250.08
2018-06-17T10:40:04.770Z,98250.81
2018-06-17T10:42:41.261Z,98245.52
2018-06-17T10:45:18.428Z,98242.03
2018-06-17T10:47:55.310Z,98249.59
2018-06-17T10:50:33.549Z,98248.23
2018-06-17T10:53:09.390Z,98247.12
2018-06-17T10:55:45.432Z,98248.11
2018-06-17T10:58:21.465Z,98246.53
2018-06-17T11:00:57.962Z,98248.22
2018-06-17T11:03:34.161Z,98251.16
2018-06-17T11:06:10.422Z,98253.20
2018-06-17T11:08:46.096Z,98254.80
2018-06-17T11:11:23.360Z,98252.94
2018-06-17T11:14:00.132Z,98254.11
2018-06-17T11:16:36.496Z,98251.84
2018-06-17T11:19:12.041Z,98255.09
2018-06-17T11:21:48.340Z,98250.44
2018-06-17T11:24:24.837Z,98244.85
2018-06-17T11:27:01.354Z,98253.99
2018-06-17T11:29:37.974Z,98251.11
2018-06-17T11:32:16.118Z,98244.86
2018-06-17T11:34:52.032Z,98253.38
2018-06-17T11:37:27.529Z,98257.45
2018-06-17T11:40:05.974Z,98252.33
2018-06-17T11:42:42.927Z,98253.66
2018-06-17T11:45:19.243Z,98246.23
2018-06-17T11:47:55.585Z,98253.98
2018-06-17T11:50:34.843Z,98248.69
2018-06-17T11:53:11.088Z,98245.12
2018-06-17T11:55:48.713Z,98246.34
2018-06-17T11:58:24.536Z,98239.47
2018-06-17T12:01:00.374Z,98236.75
2018-06-17T12:03:36.293Z,98242.22
2018-06-17T12:06:11.850Z,98239.98
2018-06-17T12:08:47.379Z,98231.06
2018-06-17T12:11:24.174Z,98229.13
2018-06-17T12:14:00.228Z,98219.83
2018-06-17T12:16:37.734Z,98207.47
2018-06-17T12:19:13.510Z,98200.13
2018-06-17T12:21:49.039Z,98208.51
2018-06-17T12:24:24.593Z,98208.83
2018-06-17T12:27:00.745Z,98210.08
2018-06-17T12:29:36.347Z,98213.14
2018-06-17T12:32:12.077Z,98205.72
2018-06-17T12:34:49.877Z,98201.69
2018-06-17T12:37:26.197Z,98189.81
2018-06-17T12:40:03.358Z,98190.22
2018-06-17T12:42:40.085Z,98197.23
2018-06-17T12:45:15.697Z,98192.16
2018-06-17T12:47:53.558Z,98193.39
2018-06-17T12:50:29.170Z,98190.29
2018-06-17T12:53:05.601Z,98192.48
2018-06-17T12:55:42.904Z,98186.52
2018-06-17T12:58:18.690Z,98184.71
2018-06-17T13:00:57.775Z,98174.04
2018-06-17T13:03:35.062Z,98171.27
2018-06-17T13:06:11.409Z,98165.34
2018-06-17T13:08:47.282Z,98165.94
2018-06-17T13:11:24.281Z,98159.36
2018-06-17T13:14:00.390Z,98162.17
2018-06-17T13:16:38.221Z,98169.17
2018-06-17T13:19:14.272Z,98160.97
2018-06-17T13:21:50.938Z,98169.09
2018-06-17T13:24:26.760Z,98156.06
2018-06-17T13:27:03.325Z,98169.76
2018-06-17T13:29:41.023Z,98172.70
2018-06-17T13:32:17.803Z,98151.21
2018-06-17T13:34:57.750Z,98159.65
2018-06-17T13:37:33.346Z,98155.63
2018-06-17T13:40:09.206Z,98156.78
2018-06-17T13:42:46.041Z,98152.18
2018-06-17T13:45:23.265Z,98150.55
2018-06-17T13:47:59.162Z,98147.91
2018-06-17T13:50:35.156Z,98151.51
2018-06-17T13:53:10.777Z,98146.84
2018-06-17T13:55:50.682Z,98136.22
2018-06-17T13:58:27.934Z,98152.58
2018-06-17T14:01:04.315Z,98146.67
2018-06-17T14:03:40.496Z,98150.28
2018-06-17T14:06:16.487Z,98144.62
2018-06-17T14:08:54.334Z,98143.58
2018-06-17T14:11:29.941Z,98145.78
2018-06-17T14:14:06.864Z,98139.47
2018-06-17T14:16:44.697Z,98141.33
2018-06-17T14:19:20.520Z,98150.84
2018-06-17T14:21:56.633Z,98142.14
2018-06-17T14:24:32.357Z,98141.25
2018-06-17T14:27:09.492Z,98135.06
2018-06-17T14:29:45.633Z,98162.02
2018-06-17T14:32:22.230Z,98148.33
2018-06-17T14:34:57.753Z,98160.66
2018-06-17T14:37:35.896Z,98164.27
2018-06-17T14:40:11.435Z,98155.47
2018-06-17T14:42:52.206Z,98158.79
2018-06-17T14:45:33.520Z,98159.04
2018-06-17T14:48:14.749Z,98165.72
2018-06-17T14:50:56.778Z,98162.27
2018-06-17T14:53:33.192Z,98149.77
2018-06-17T14:56:09.262Z,98144.62
2018-06-17T14:58:45.078Z,98148.44
2018-06-17T15:01:21.035Z,98145.39
2018-06-17T15:03:56.933Z,98148.34
2018-06-17T15:06:32.994Z,98156.06
2018-06-17T15:09:10.541Z,98160.36
2018-06-17T15:11:47.464Z,98157.20
2018-06-17T15:14:24.184Z,98153.43
2018-06-17T15:16:59.726Z,98146.23
2018-06-17T15:19:37.278Z,98154.46
2018-06-17T15:22:14.436Z,98152.80
2018-06-17T15:24:51.488Z,98162.97
2018-06-17T15:27:27.446Z,98165.95
2018-06-17T15:30:05.982Z,98165.21
2018-06-17T15:34:47.801Z,98165.80
2018-06-17T15:37:32.085Z,98165.36
2018-06-17T15:40:08.094Z,98168.98
2018-06-17T15:42:44.033Z,98164.97
2018-06-17T15:45:20.577Z,98161.43
2018-06-17T15:47:56.472Z,98163.45
2018-06-17T15:50:33.483Z,98158.92
2018-06-17T15:53:09.203Z,98155.55
2018-06-17T15:55:45.139Z,98168.23
2018-06-17T15:58:20.967Z,98161.70
2018-06-17T16:00:57.279Z,98161.88
2018-06-17T16:03:33.193Z,98151.09
2018-06-17T16:06:09.890Z,98160.76
2018-06-17T16:08:45.769Z,98154.69
2018-06-17T16:11:24.781Z,98160.45
2018-06-17T16:14:06.096Z,98162.50
2018-06-17T16:16:46.766Z,98154.16
2018-06-17T16:19:30.889Z,98164.87
2018-06-17T16:22:06.761Z,98168.91
2018-06-17T16:24:42.459Z,98160.98
2018-06-17T16:27:18.163Z,98154.63
2018-06-17T16:29:54.187Z,98155.77
2018-06-17T16:32:31.874Z,98159.36
2018-06-17T16:35:07.786Z,98158.70
2018-06-17T16:37:43.741Z,98160.49
2018-06-17T16:40:21.235Z,98160.52
2018-06-17T16:42:56.804Z,98162.28
2018-06-17T16:45:33.929Z,98164.82
2018-06-17T16:48:11.422Z,98168.22
2018-06-17T16:50:52.315Z,98168.85
2018-06-17T16:53:34.118Z,98169.46
2018-06-17T16:56:15.899Z,98173.20
2018-06-17T16:58:58.677Z,98173.91
2018-06-17T17:01:36.307Z,98178.24
2018-06-17T17:04:12.827Z,98181.92
2018-06-17T17:06:50.497Z,98179.47
2018-06-17T17:09:26.137Z,98184.48
2018-06-17T17:12:01.682Z,98189.29
2018-06-17T17:14:40.828Z,98194.11
2018-06-17T17:17:24.167Z,98201.91
2018-06-17T17:20:15.582Z,98196.56
2018-06-17T17:22:57.987Z,98204.53
2018-06-17T17:25:52.298Z,98198.75
2018-06-17T17:28:35.497Z,98200.93
2018-06-17T17:31:18.867Z,98206.23
2018-06-17T17:34:03.668Z,98212.61
2018-06-17T17:36:55.500Z,98210.20
2018-06-17T17:39:36.827Z,98209.60
2018-06-17T17:42:15.605Z,98206.40
2018-06-17T17:45:02.366Z,98209.38
2018-06-17T17:48:03.808Z,98209.58
2018-06-17T17:50:42.050Z,98223.81
2018-06-17T17:56:07.803Z,98225.94
2018-06-17T17:58:43.963Z,98230.11
2018-06-17T18:01:28.895Z,98233.16
2018-06-17T18:08:17.455Z,98233.00
2018-06-17T18:13:58.671Z,98234.16
2018-06-17T18:16:31.727Z,98240.20
2018-06-17T18:21:50.250Z,98244.18
2018-06-17T18:24:27.757Z,98239.66
2018-06-17T18:27:22.592Z,98243.16
2018-06-17T18:30:06.144Z,98245.88
2018-06-17T18:32:53.648Z,98239.86
2018-06-17T18:35:37.358Z,98244.47
2018-06-17T18:38:14.640Z,98242.34
2018-06-17T18:40:50.955Z,98244.32
2018-06-17T18:43:26.817Z,98251.55
2018-06-17T18:46:03.532Z,98250.75
2018-06-17T18:48:39.158Z,98253.80
2018-06-17T18:51:14.691Z,98252.00
2018-06-17T18:53:52.272Z,98258.69
2018-06-17T18:56:30.049Z,98263.50
2018-06-17T18:59:06.167Z,98260.02
2018-06-17T19:01:42.439Z,98266.39
2018-06-17T19:04:18.196Z,98267.84
2018-06-17T19:06:55.281Z,98278.70
2018-06-17T19:09:36.166Z,98282.05
2018-06-17T19:12:17.805Z,98289.54
2018-06-17T19:14:58.904Z,98285.80
2018-06-17T19:17:40.992Z,98291.99
2018-06-17T19:20:18.592Z,98294.28
2018-06-17T19:22:59.222Z,98305.96
2018-06-17T19:25:36.369Z,98305.81
2018-06-17T19:28:13.234Z,98309.55
2018-06-17T19:30:51.458Z,98307.41
2018-06-17T19:33:28.689Z,98313.41
2018-06-17T19:36:05.029Z,98314.52
2018-06-17T19:38:41.178Z,98318.61
2018-06-17T19:41:18.035Z,98329.34
2018-06-17T19:43:54.342Z,98327.66
2018-06-17T19:46:31.057Z,98325.83
2018-06-17T19:49:08.564Z,98337.51
2018-06-17T19:51:49.712Z,98345.56
2018-06-17T19:54:32.280Z,98341.72
2018-06-17T19:59:25.475Z,98342.40
2018-06-17T20:02:02.184Z,98351.92
2018-06-17T20:04:39.449Z,98353.36
2018-06-17T20:07:16.727Z,98356.25
2018-06-17T20:09:53.723Z,98352.88
2018-06-17T20:12:32.673Z,98359.36
2018-06-17T20:15:09.814Z,98358.66
2018-06-17T20:17:47.122Z,98358.26
2018-06-17T20:20:23.340Z,98351.28
2018-06-17T20:22:59.270Z,98353.66
2018-06-17T20:25:35.911Z,98342.93
2018-06-17T20:28:11.610Z,98339.80
2018-06-17T20:30:48.319Z,98338.70
2018-06-17T20:33:29.169Z,98338.06
2018-06-17T20:36:18.017Z,98350.66
2018-06-17T20:39:16.434Z,98349.59
2018-06-17T20:41:57.781Z,98352.19
2018-06-17T20:44:35.483Z,98357.91
2018-06-17T20:47:32.226Z,98362.87
2018-06-17T20:50:18.476Z,98367.83
2018-06-17T20:56:06.687Z,98374.05
2018-06-17T20:59:02.705Z,98369.62
2018-06-17T21:02:11.540Z,98379.39
2018-06-17T21:04:55.087Z,98377.13
2018-06-17T21:17:45.666Z,98382.12
2018-06-17T21:25:41.733Z,98397.73
2018-06-17T21:28:23.415Z,98405.75
2018-06-17T21:31:03.750Z,98396.03
2018-06-17T21:33:49.602Z,98404.45
2018-06-17T21:36:34.693Z,98407.39
2018-06-17T21:39:12.097Z,98411.41
2018-06-17T21:41:51.293Z,98410.01
2018-06-17T21:44:38.580Z,98417.13
2018-06-17T21:47:17.794Z,98420.24
2018-06-17T21:50:00.112Z,98420.52
2018-06-17T21:52:46.122Z,98419.67
2018-06-17T21:55:27.243Z,98421.70
2018-06-17T21:58:23.701Z,98421.84
2018-06-17T22:01:07.310Z,98417.55
2018-06-17T22:03:50.670Z,98413.80
2018-06-17T22:06:38.644Z,98413.97
2018-06-17T22:09:20.710Z,98417.38
2018-06-17T22:12:07.185Z,98414.17
2018-06-17T22:14:57.370Z,98409.92
2018-06-17T22:17:39.553Z,98409.73
2018-06-17T22:20:15.850Z,98419.99
2018-06-17T22:23:00.112Z,98423.19
2018-06-17T22:25:44.299Z,98431.66
2018-06-17T22:28:29.434Z,98432.34
2018-06-17T22:31:15.843Z,98435.89
2018-06-17T22:33:58.873Z,98441.91
2018-06-17T22:36:44.860Z,98440.07
2018-06-17T22:39:26.856Z,98449.77
2018-06-17T22:42:11.415Z,98446.38
2018-06-17T22:44:56.016Z,98453.50
2018-06-17T22:47:37.694Z,98448.31
2018-06-17T22:50:15.398Z,98444.41
2018-06-17T22:53:05.277Z,98452.89
2018-06-17T22:55:46.880Z,98453.21
2018-06-17T22:58:33.225Z,98448.18
2018-06-17T23:01:16.515Z,98448.69
2018-06-17T23:04:02.859Z,98449.07
2018-06-17T23:06:44.815Z,98452.09
2018-06-17T23:09:48.254Z,98457.31
2018-06-17T23:12:29.152Z,98449.49
2018-06-17T23:15:09.039Z,98449.21
2018-06-17T23:17:50.800Z,98457.72
2018-06-17T23:20:28.733Z,98449.53
2018-06-17T23:23:06.964Z,98462.91
2018-06-17T23:25:50.597Z,98461.92
2018-06-17T23:28:34.530Z,98464.84
2018-06-17T23:31:17.405Z,98465.63
2018-06-17T23:33:58.653Z,98462.44
2018-06-17T23:36:40.309Z,98465.95
2018-06-17T23:39:21.171Z,98465.67
2018-06-17T23:42:00.109Z,98468.72
2018-06-17T23:44:36.899Z,98467.81
2018-06-17T23:47:18.175Z,98472.61
2018-06-17T23:49:59.711Z,98471.66
2018-06-17T23:52:42.514Z,98478.34
2018-06-17T23:55:25.862Z,98483.43
2018-06-17T23:58:04.979Z,98478.16
